HADR

Aba Tenna Dejazmach Yilma International Airport

Dire Dawa, Ethiopia
METAR HADR 241200Z 06005KT 360V110 9999 SCT 027 FEW056 34/04 Q1015
Observed Flight Rules
Sep-24 @ 12:00 UTC (2 hours ago) Visual Flight Rules
Wind Visibility Clouds
60° at 5 knots 10,000+ meters
  • Scattered at 2,700' AGL
  • Few at 5,600' AGL
Temperatures Readings
Current 34°C / 93°F
Dewpoint 4°C / 39°F
Humidity 15%
Altimeter 29.97" Hg
Pressure 1015 hPa
Elevation 1146
METAR HADR 241200Z 06005KT 360V110 9999 SCT 027 FEW056 34/04 Q1015
Observed Flight Rules
Sep-24 @ 12:00 UTC
(2 hours ago)
VFR
Wind Visibility
60° at 5 knots 10,000+ meters
Clouds
  • Scattered at 2,700' AGL
  • Few at 5,600' AGL
Temperature Dewpoint
34°C / 93°F 4°C / 39°F
Humidity Altimeter Pressure
15% 29.97" Hg 1015 hPa